Time;durP1;ratioP1;P1;durP2;ratioP2;P2;SDS_P1;SDS_P2;PMS_P1;PMS_P2;Temp;Humidity;BMP_temperature;BMP_pressure;BME280_temperature;BME280_humidity;BME280_pressure;Samples;Min_cycle;Max_cycle;Signal;HPM_P1;HPM_P2
2023/03/14 00:02:03;;;;;;;11.90;10.50;;;8.80;92.20;;;;;;6249793;28;20471;-62
2023/03/14 00:05:08;;;;;;;11.90;10.57;;;8.70;92.50;;;;;;6249351;28;20466;-62
2023/03/14 00:08:11;;;;;;;17.00;11.27;;;8.70;92.50;;;;;;6240825;28;20471;-62
2023/03/14 00:11:18;;;;;;;15.13;11.17;;;8.60;93.00;;;;;;6250334;28;20983;-62
2023/03/14 00:14:21;;;;;;;13.13;10.90;;;8.60;93.80;;;;;;6250683;28;20964;-62
2023/03/14 00:17:24;;;;;;;11.30;10.10;;;8.60;93.70;;;;;;6250250;28;20995;-63
2023/03/14 00:20:28;;;;;;;11.77;10.27;;;8.70;93.60;;;;;;6250417;28;20598;-62
2023/03/14 00:23:33;;;;;;;12.40;9.53;;;8.60;93.80;;;;;;6250012;28;20950;-61
2023/03/14 00:26:38;;;;;;;15.20;12.33;;;8.70;93.90;;;;;;6248966;28;20824;-60
2023/03/14 00:29:43;;;;;;;12.27;8.23;;;8.70;93.80;;;;;;6249567;28;20478;-61
2023/03/14 00:32:46;;;;;;;8.90;8.10;;;8.80;93.80;;;;;;6250186;28;20475;-60
2023/03/14 00:35:56;;;;;;;13.00;9.23;;;8.80;93.70;;;;;;6249906;28;20481;-61
2023/03/14 00:38:59;;;;;;;11.83;7.70;;;8.80;93.80;;;;;;6249894;28;20501;-60
2023/03/14 00:42:04;;;;;;;7.97;7.20;;;8.90;93.70;;;;;;6249308;28;20467;-60
2023/03/14 00:45:09;;;;;;;8.73;7.90;;;8.80;93.80;;;;;;6248822;28;20801;-61
2023/03/14 00:48:14;;;;;;;12.47;11.03;;;8.70;94.10;;;;;;6249712;28;20467;-61
2023/03/14 00:51:17;;;;;;;8.73;7.80;;;8.50;94.70;;;;;;6249397;28;20478;-60
2023/03/14 00:54:21;;;;;;;10.40;7.83;;;8.60;94.90;;;;;;6249476;28;20459;-60
2023/03/14 00:57:25;;;;;;;8.90;8.00;;;8.70;95.00;;;;;;6247557;28;20471;-61
2023/03/14 01:00:29;;;;;;;8.10;7.30;;;8.70;95.00;;;;;;6248494;28;20479;-60
2023/03/14 01:03:32;;;;;;;13.40;7.40;;;8.80;94.90;;;;;;6249004;28;20471;-61
2023/03/14 01:06:35;;;;;;;9.93;6.60;;;8.90;94.70;;;;;;6249031;28;20508;-61
2023/03/14 01:09:38;;;;;;;7.43;6.27;;;9.00;94.60;;;;;;6248462;28;20470;-60
2023/03/14 01:12:43;;;;;;;10.03;6.33;;;9.00;94.50;;;;;;6237164;28;20475;-60
2023/03/14 01:15:46;;;;;;;8.13;7.33;;;9.00;94.70;;;;;;6248129;28;20479;-60
2023/03/14 01:18:50;;;;;;;7.37;6.50;;;9.00;95.00;;;;;;6247440;28;20484;-61
2023/03/14 01:21:53;;;;;;;7.00;6.40;;;9.10;94.90;;;;;;6247762;28;20471;-61
2023/03/14 01:24:56;;;;;;;5.80;5.20;;;9.10;94.80;;;;;;6248804;28;20494;-60
2023/03/14 01:28:01;;;;;;;11.93;6.20;;;9.20;94.70;;;;;;6248946;28;20467;-60
2023/03/14 01:31:05;;;;;;;8.17;6.20;;;9.30;94.70;;;;;;6249522;28;20459;-60
2023/03/14 01:34:08;;;;;;;6.83;6.10;;;9.30;95.00;;;;;;6247419;28;20806;-60
2023/03/14 01:37:11;;;;;;;7.40;5.00;;;9.40;94.70;;;;;;6248914;28;20944;-60
2023/03/14 01:40:16;;;;;;;6.47;5.70;;;9.40;94.60;;;;;;6248304;28;20479;-60
2023/03/14 01:43:21;;;;;;;7.33;5.90;;;9.40;94.80;;;;;;6248930;28;20569;-60
2023/03/14 01:46:34;;;;;;;8.03;6.20;;;9.40;94.70;;;;;;6249176;28;20475;-61
2023/03/14 01:49:38;;;;;;;6.03;5.43;;;9.40;94.70;;;;;;6249606;28;20447;-61
2023/03/14 01:52:45;;;;;;;9.00;6.53;;;9.40;94.70;;;;;;6248861;28;20456;-62
2023/03/14 01:55:49;;;;;;;6.30;5.80;;;9.50;94.70;;;;;;6249299;28;20462;-61
2023/03/14 01:58:54;;;;;;;7.00;6.10;;;9.50;94.60;;;;;;6249027;28;20489;-61
2023/03/14 02:01:58;;;;;;;10.13;7.83;;;9.50;94.60;;;;;;6249363;28;20475;-61
2023/03/14 02:05:01;;;;;;;15.20;10.70;;;9.50;94.70;;;;;;6249209;28;20790;-61
2023/03/14 02:08:07;;;;;;;14.10;9.27;;;9.50;94.70;;;;;;6249157;28;20478;-61
2023/03/14 02:11:11;;;;;;;7.73;6.07;;;9.40;94.70;;;;;;6248457;28;20471;-61
2023/03/14 02:14:29;;;;;;;10.60;7.77;;;9.40;94.90;;;;;;6249102;28;20475;-61
2023/03/14 02:17:32;;;;;;;10.53;8.87;;;9.40;95.00;;;;;;6248690;28;20521;-61
2023/03/14 02:20:46;;;;;;;12.83;8.57;;;9.40;94.90;;;;;;6248227;28;20471;-61
2023/03/14 02:23:59;;;;;;;8.50;7.60;;;9.50;94.90;;;;;;6248218;28;20475;-61
2023/03/14 02:27:10;;;;;;;5.80;5.30;;;9.40;94.80;;;;;;6246994;28;20833;-61
2023/03/14 02:30:16;;;;;;;7.10;6.07;;;9.30;94.90;;;;;;6245849;28;20474;-61
2023/03/14 02:33:22;;;;;;;6.10;5.60;;;9.30;95.20;;;;;;6248248;28;20471;-61
2023/03/14 02:36:26;;;;;;;9.50;7.40;;;9.30;95.10;;;;;;6248099;28;20501;-61
2023/03/14 02:39:36;;;;;;;7.73;5.30;;;9.20;95.50;;;;;;6248029;28;20471;-61
2023/03/14 02:42:40;;;;;;;6.60;5.93;;;9.20;95.60;;;;;;6246241;28;20976;-61
2023/03/14 02:45:45;;;;;;;6.43;5.80;;;9.20;95.70;;;;;;6247630;28;20820;-60
2023/03/14 02:48:52;;;;;;;6.47;4.53;;;9.20;95.70;;;;;;6247973;28;20471;-60
2023/03/14 02:51:55;;;;;;;5.70;5.17;;;9.20;95.60;;;;;;6249157;28;20482;-60
2023/03/14 02:54:59;;;;;;;7.73;5.23;;;9.10;95.80;;;;;;6251894;28;20479;-61
2023/03/14 02:58:03;;;;;;;5.27;4.77;;;9.10;95.90;;;;;;6252278;28;20470;-61
2023/03/14 03:01:07;;;;;;;6.77;5.10;;;9.10;96.00;;;;;;6252188;28;20975;-61
2023/03/14 03:04:10;;;;;;;5.73;5.20;;;9.10;96.20;;;;;;6252047;28;20466;-61
2023/03/14 03:07:13;;;;;;;5.83;5.33;;;9.10;96.40;;;;;;6249537;28;20475;-61
2023/03/14 03:10:17;;;;;;;4.60;4.20;;;9.10;96.30;;;;;;6251748;28;20474;-61
2023/03/14 03:13:22;;;;;;;5.33;4.20;;;9.10;96.40;;;;;;6251900;28;20864;-61
2023/03/14 03:16:25;;;;;;;4.70;4.30;;;9.10;96.60;;;;;;6251828;28;20467;-61
2023/03/14 03:19:28;;;;;;;6.20;5.23;;;9.00;96.50;;;;;;6242515;28;20474;-61
2023/03/14 03:22:31;;;;;;;4.83;4.40;;;9.00;96.60;;;;;;6248866;28;20471;-61
2023/03/14 03:25:35;;;;;;;4.27;3.80;;;9.00;96.70;;;;;;6249205;28;20451;-61
2023/03/14 03:28:39;;;;;;;5.80;5.20;;;9.00;97.00;;;;;;6251467;28;20442;-61
2023/03/14 03:31:45;;;;;;;4.83;4.40;;;8.90;97.00;;;;;;6251454;28;20431;-61
2023/03/14 03:34:48;;;;;;;4.53;4.13;;;8.90;97.20;;;;;;6251556;28;20474;-61
2023/03/14 03:37:51;;;;;;;5.23;3.80;;;8.90;97.40;;;;;;6251374;28;20475;-61
2023/03/14 03:40:54;;;;;;;6.10;4.10;;;8.80;97.60;;;;;;6248401;28;20478;-61
2023/03/14 03:43:59;;;;;;;4.37;3.97;;;8.80;97.90;;;;;;6251398;28;20483;-61
2023/03/14 03:47:02;;;;;;;3.90;3.60;;;8.80;97.90;;;;;;6251199;28;20475;-61
2023/03/14 03:50:06;;;;;;;7.17;3.60;;;8.80;98.10;;;;;;6250982;28;20549;-61
2023/03/14 03:53:09;;;;;;;4.87;4.10;;;8.80;98.40;;;;;;6251033;28;20750;-61
2023/03/14 03:56:14;;;;;;;4.73;4.33;;;8.90;98.30;;;;;;6245411;28;20475;-61
2023/03/14 03:59:18;;;;;;;4.40;4.03;;;8.80;98.40;;;;;;6250665;28;20467;-60
2023/03/14 04:02:22;;;;;;;5.40;3.63;;;8.70;98.60;;;;;;6250492;28;20478;-60
2023/03/14 04:05:25;;;;;;;6.10;3.70;;;8.70;98.60;;;;;;6250791;28;20478;-60
2023/03/14 04:08:29;;;;;;;3.93;3.60;;;8.70;98.90;;;;;;6250862;28;20494;-60
2023/03/14 04:11:32;;;;;;;12.43;4.80;;;8.70;99.10;;;;;;6251045;28;20482;-60
2023/03/14 04:14:36;;;;;;;5.73;4.00;;;8.60;99.20;;;;;;6250730;28;20470;-61
2023/03/14 04:17:40;;;;;;;3.93;3.53;;;8.60;99.40;;;;;;6250866;28;20478;-61
2023/03/14 04:20:43;;;;;;;6.03;4.13;;;8.60;99.40;;;;;;6246548;28;20585;-61
2023/03/14 04:23:46;;;;;;;7.73;4.30;;;8.60;99.50;;;;;;6250559;28;20976;-60
2023/03/14 04:26:49;;;;;;;5.27;3.40;;;8.60;99.50;;;;;;6250384;28;20483;-60
2023/03/14 04:29:54;;;;;;;5.53;4.07;;;8.70;99.70;;;;;;6250258;28;20482;-60
2023/03/14 04:32:57;;;;;;;4.50;3.87;;;8.70;99.50;;;;;;6250489;28;20483;-60
2023/03/14 04:36:00;;;;;;;8.43;3.97;;;8.80;99.50;;;;;;6250304;28;21011;-60
2023/03/14 04:39:04;;;;;;;7.53;4.03;;;8.80;99.70;;;;;;6250369;28;20467;-60
2023/03/14 04:42:07;;;;;;;4.77;4.10;;;8.80;99.60;;;;;;6250288;28;20582;-60
2023/03/14 04:45:11;;;;;;;5.00;3.87;;;8.90;99.60;;;;;;6249476;28;20494;-61
2023/03/14 04:48:15;;;;;;;4.10;3.60;;;9.00;99.60;;;;;;6249487;28;20486;-60
2023/03/14 04:51:18;;;;;;;3.77;3.40;;;9.00;99.90;;;;;;6250055;28;20471;-60
2023/03/14 04:54:21;;;;;;;6.60;4.17;;;9.10;99.50;;;;;;6249924;28;20486;-60
2023/03/14 04:57:24;;;;;;;6.00;5.40;;;9.10;99.30;;;;;;6251299;28;20475;-60
2023/03/14 05:00:29;;;;;;;5.90;5.40;;;9.10;99.50;;;;;;6251964;28;20471;-61
2023/03/14 05:03:32;;;;;;;5.87;4.90;;;9.10;99.80;;;;;;6249365;28;20497;-60
2023/03/14 05:06:35;;;;;;;4.80;4.40;;;9.10;99.90;;;;;;6249597;28;20490;-60
2023/03/14 05:09:39;;;;;;;5.23;3.80;;;9.20;99.90;;;;;;6249806;28;20466;-61
2023/03/14 05:12:42;;;;;;;8.60;3.90;;;9.30;99.90;;;;;;6249195;28;20470;-60
2023/03/14 05:15:47;;;;;;;5.13;3.80;;;9.30;99.90;;;;;;6249797;28;20482;-60
2023/03/14 05:18:51;;;;;;;3.40;3.10;;;9.40;99.80;;;;;;6249499;28;20981;-60
2023/03/14 05:21:54;;;;;;;5.17;4.03;;;9.50;99.70;;;;;;6249359;28;20490;-61
2023/03/14 05:24:58;;;;;;;4.07;3.67;;;9.50;99.80;;;;;;6249681;28;20963;-60
2023/03/14 05:28:02;;;;;;;3.67;3.37;;;9.60;99.80;;;;;;6249766;28;20471;-60
2023/03/14 05:31:09;;;;;;;6.87;4.30;;;9.60;99.90;;;;;;6249350;28;20467;-61
2023/03/14 05:34:13;;;;;;;4.63;3.57;;;9.60;99.90;;;;;;6249301;28;20808;-60
2023/03/14 05:37:16;;;;;;;7.30;4.13;;;9.70;99.70;;;;;;6249400;28;20490;-60
2023/03/14 05:40:22;;;;;;;5.90;4.00;;;9.70;99.70;;;;;;6249393;28;20554;-60
2023/03/14 05:43:25;;;;;;;7.33;4.33;;;9.80;99.60;;;;;;6249005;28;20489;-60
2023/03/14 05:46:30;;;;;;;5.97;4.07;;;9.90;99.50;;;;;;6249651;28;20479;-60
2023/03/14 05:49:33;;;;;;;6.50;4.40;;;9.90;99.50;;;;;;6249173;28;20466;-60
2023/03/14 05:52:37;;;;;;;6.07;4.40;;;10.00;99.00;;;;;;6249379;28;20530;-60
2023/03/14 05:55:40;;;;;;;4.70;4.30;;;10.10;99.00;;;;;;6248584;28;20478;-60
2023/03/14 05:58:43;;;;;;;5.10;4.40;;;10.20;98.90;;;;;;6248899;28;20451;-62
2023/03/14 06:01:48;;;;;;;4.43;3.93;;;10.30;98.90;;;;;;6249047;28;20616;-61
2023/03/14 06:04:51;;;;;;;5.17;4.07;;;10.30;98.80;;;;;;6248951;28;20568;-61
2023/03/14 06:07:54;;;;;;;6.13;5.50;;;10.40;98.80;;;;;;6248939;28;20475;-61
2023/03/14 06:10:58;;;;;;;4.47;3.80;;;10.50;98.90;;;;;;6248970;28;20482;-61
2023/03/14 06:14:01;;;;;;;8.07;5.50;;;10.50;99.00;;;;;;6249062;28;20463;-61
2023/03/14 06:17:06;;;;;;;4.80;4.40;;;10.60;99.10;;;;;;6248454;28;20475;-61
2023/03/14 06:20:11;;;;;;;6.10;3.80;;;10.70;99.30;;;;;;6248137;28;20963;-62
2023/03/14 06:23:14;;;;;;;5.50;4.00;;;10.90;99.30;;;;;;6248789;28;20952;-62
2023/03/14 06:26:17;;;;;;;8.70;4.57;;;11.00;99.20;;;;;;6251697;28;20475;-62
2023/03/14 06:29:20;;;;;;;4.40;4.00;;;11.20;99.20;;;;;;6253082;28;20813;-62
2023/03/14 06:32:25;;;;;;;6.40;5.10;;;11.20;99.10;;;;;;6253636;28;20816;-62
2023/03/14 06:35:28;;;;;;;5.70;4.10;;;11.30;99.20;;;;;;6253401;28;20497;-62
2023/03/14 06:38:32;;;;;;;6.37;4.13;;;11.40;99.20;;;;;;6252974;28;20474;-62
2023/03/14 06:41:35;;;;;;;5.57;4.43;;;11.50;99.40;;;;;;6252392;28;20967;-63
2023/03/14 06:44:38;;;;;;;8.13;5.17;;;11.70;99.90;;;;;;6252717;28;20816;-62
2023/03/14 06:47:43;;;;;;;5.03;4.40;;;11.80;99.90;;;;;;6252909;28;20493;-62
2023/03/14 06:50:46;;;;;;;6.40;5.57;;;11.90;99.90;;;;;;6252978;28;20473;-62
2023/03/14 06:53:49;;;;;;;10.13;4.70;;;11.90;99.80;;;;;;6252771;28;20489;-62
2023/03/14 06:56:52;;;;;;;6.73;5.03;;;12.10;98.90;;;;;;6252462;28;20474;-62
2023/03/14 06:59:55;;;;;;;9.00;6.40;;;12.10;98.80;;;;;;6252760;28;20478;-61
2023/03/14 07:03:00;;;;;;;5.60;4.47;;;12.10;99.00;;;;;;6251882;28;20479;-60
2023/03/14 07:06:04;;;;;;;6.23;4.83;;;12.20;99.90;;;;;;6251880;28;20803;-62
2023/03/14 07:09:07;;;;;;;11.23;4.77;;;12.40;99.80;;;;;;6253027;28;20471;-62
2023/03/14 07:12:10;;;;;;;10.27;4.53;;;12.40;99.50;;;;;;6252543;28;20485;-61
2023/03/14 07:15:13;;;;;;;7.33;4.17;;;12.50;99.60;;;;;;6252307;28;20498;-61
2023/03/14 07:18:22;;;;;;;7.23;4.27;;;12.60;99.70;;;;;;6252154;28;20471;-61
2023/03/14 07:21:25;;;;;;;13.60;4.50;;;12.70;99.60;;;;;;6252302;28;20467;-62
2023/03/14 07:24:29;;;;;;;9.10;4.30;;;12.80;99.50;;;;;;6252137;28;20482;-62
2023/03/14 07:27:32;;;;;;;5.80;4.17;;;12.90;99.40;;;;;;6252103;28;20471;-62
2023/03/14 07:30:35;;;;;;;6.43;4.47;;;13.10;99.40;;;;;;6251934;28;20471;-61
2023/03/14 07:33:40;;;;;;;7.23;4.50;;;13.20;99.20;;;;;;6252034;28;20463;-61
2023/03/14 07:36:43;;;;;;;4.53;3.63;;;13.20;99.20;;;;;;6251345;28;20505;-61
2023/03/14 07:39:46;;;;;;;6.37;4.20;;;13.20;99.60;;;;;;6251825;28;20486;-62
2023/03/14 07:42:50;;;;;;;4.70;4.00;;;13.20;99.80;;;;;;6251473;28;20518;-61
2023/03/14 07:45:53;;;;;;;7.10;4.10;;;13.30;99.90;;;;;;6251630;28;20543;-61
2023/03/14 07:49:02;;;;;;;5.60;4.00;;;13.60;99.90;;;;;;6251540;28;20479;-61
2023/03/14 07:52:05;;;;;;;5.53;3.60;;;13.70;99.70;;;;;;6251161;28;20983;-61
2023/03/14 07:55:10;;;;;;;4.73;3.57;;;14.00;99.90;;;;;;6251613;28;20830;-61
2023/03/14 07:58:13;;;;;;;4.17;3.33;;;15.40;99.90;;;;;;6251126;28;20769;-61
2023/03/14 08:01:16;;;;;;;5.33;2.80;;;18.10;95.40;;;;;;6250913;28;20984;-62
2023/03/14 08:04:21;;;;;;;4.50;2.87;;;18.80;91.90;;;;;;6251193;28;20814;-62
2023/03/14 08:07:24;;;;;;;3.83;3.40;;;18.50;90.20;;;;;;6251211;28;20370;-62
2023/03/14 08:10:28;;;;;;;4.40;2.80;;;18.20;90.40;;;;;;6251114;28;20228;-62
2023/03/14 08:13:31;;;;;;;5.20;3.47;;;19.30;90.40;;;;;;6251275;28;20228;-62
2023/03/14 08:16:34;;;;;;;4.80;3.23;;;20.40;83.70;;;;;;6250594;28;20216;-62
2023/03/14 08:19:39;;;;;;;3.93;3.20;;;20.80;78.90;;;;;;6250882;28;20649;-62
2023/03/14 08:22:42;;;;;;;3.63;2.40;;;20.70;77.70;;;;;;6251581;28;20224;-62
2023/03/14 08:25:45;;;;;;;3.87;2.40;;;20.90;76.30;;;;;;6254535;28;20228;-62
2023/03/14 08:28:48;;;;;;;7.80;2.20;;;22.00;71.30;;;;;;6253601;28;20545;-62
2023/03/14 08:31:52;;;;;;;3.13;2.83;;;22.30;69.00;;;;;;6251390;28;20208;-62
2023/03/14 08:34:56;;;;;;;4.90;2.50;;;22.50;65.50;;;;;;6241977;28;20310;-62
2023/03/14 08:38:00;;;;;;;3.43;2.40;;;22.10;64.70;;;;;;6250354;28;20971;-62
2023/03/14 08:41:04;;;;;;;3.20;1.97;;;21.70;65.00;;;;;;6249656;28;20282;-62
2023/03/14 08:44:08;;;;;;;2.27;2.00;;;21.30;65.00;;;;;;6250335;28;20318;-62
2023/03/14 08:47:12;;;;;;;2.60;2.40;;;21.00;66.00;;;;;;6249896;28;20614;-62
2023/03/14 08:50:17;;;;;;;3.00;1.90;;;20.40;66.60;;;;;;6249958;28;20572;-62
2023/03/14 08:53:22;;;;;;;2.53;1.93;;;20.10;67.90;;;;;;6250437;28;20314;-62
2023/03/14 08:56:25;;;;;;;3.40;2.40;;;19.60;69.70;;;;;;6249841;28;20298;-62
2023/03/14 08:59:28;;;;;;;2.40;1.87;;;19.40;71.70;;;;;;6249764;28;20238;-64
2023/03/14 09:02:31;;;;;;;4.53;2.00;;;19.60;70.70;;;;;;6245881;28;20220;-61
2023/03/14 09:05:36;;;;;;;3.67;2.10;;;19.40;72.00;;;;;;6250024;28;20232;-65
2023/03/14 09:08:39;;;;;;;5.90;3.37;;;20.30;72.30;;;;;;6249005;28;20220;-66
2023/03/14 09:11:43;;;;;;;5.17;2.50;;;21.90;68.20;;;;;;6249889;28;20255;-65
2023/03/14 09:14:46;;;;;;;4.00;2.30;;;23.60;61.80;;;;;;6249723;28;20239;-66
2023/03/14 09:17:49;;;;;;;4.90;2.03;;;23.30;57.90;;;;;;6239275;28;20232;-67
2023/03/14 09:20:54;;;;;;;4.30;3.00;;;23.80;56.60;;;;;;6225319;28;20233;-66
2023/03/14 09:23:57;;;;;;;2.30;1.50;;;23.10;55.50;;;;;;6224861;28;20236;-65
2023/03/14 09:27:00;;;;;;;2.10;1.60;;;22.90;56.70;;;;;;6224978;28;20236;-63
2023/03/14 09:30:04;;;;;;;3.20;1.73;;;23.10;55.10;;;;;;6225194;28;20563;-62
2023/03/14 09:33:07;;;;;;;3.80;1.60;;;21.70;57.10;;;;;;6224973;28;20272;-60
2023/03/14 09:36:12;;;;;;;3.60;1.50;;;20.90;58.50;;;;;;6252985;28;20219;-62
2023/03/14 09:39:16;;;;;;;2.03;1.70;;;20.30;60.00;;;;;;6254631;28;20235;-61
2023/03/14 09:42:24;;;;;;;4.30;1.80;;;19.80;61.70;;;;;;6250667;28;20330;-61
2023/03/14 09:45:29;;;;;;;2.20;1.50;;;19.10;63.90;;;;;;6273861;28;20248;-61
2023/03/14 09:48:34;;;;;;;2.20;1.57;;;18.50;65.80;;;;;;6274309;28;20243;-62
2023/03/14 09:51:39;;;;;;;3.27;1.77;;;18.00;66.80;;;;;;6266284;28;20235;-61
2023/03/14 09:54:45;;;;;;;6.17;1.70;;;17.70;67.90;;;;;;6248667;28;20223;-62
2023/03/14 09:57:51;;;;;;;2.60;1.53;;;17.40;69.00;;;;;;6249059;28;20232;-62
2023/03/14 10:00:57;;;;;;;3.70;1.90;;;17.20;69.80;;;;;;6252885;28;20482;-61
2023/03/14 10:04:05;;;;;;;4.70;1.97;;;17.00;70.90;;;;;;6253415;28;20478;-61
2023/03/14 10:07:15;;;;;;;4.97;1.50;;;16.80;71.50;;;;;;6253803;28;20495;-62
2023/03/14 10:10:21;;;;;;;4.00;1.40;;;16.70;72.30;;;;;;6274278;28;20470;-63
2023/03/14 10:13:27;;;;;;;1.87;1.53;;;16.60;72.70;;;;;;6278865;28;20466;-64
2023/03/14 10:16:33;;;;;;;2.93;1.60;;;16.60;73.80;;;;;;6279158;28;20473;-62
2023/03/14 10:19:37;;;;;;;1.80;1.50;;;16.50;74.10;;;;;;6281446;28;20465;-61
2023/03/14 10:22:42;;;;;;;6.03;2.23;;;16.60;74.90;;;;;;6280746;28;20442;-63
2023/03/14 10:25:47;;;;;;;3.70;2.70;;;16.70;75.80;;;;;;6277117;28;20481;-63
2023/03/14 10:28:55;;;;;;;2.80;2.57;;;16.90;78.40;;;;;;6253224;28;20449;-61
2023/03/14 10:32:01;;;;;;;3.83;2.30;;;17.60;78.80;;;;;;6252992;28;20545;-63
2023/03/14 10:35:18;;;;;;;4.40;2.83;;;19.20;76.20;;;;;;6253680;28;20236;-62
2023/03/14 10:38:25;;;;;;;3.00;2.30;;;20.70;70.80;;;;;;6253092;28;20251;-61
2023/03/14 10:41:33;;;;;;;4.93;2.43;;;21.70;65.20;;;;;;6249132;28;20232;-61
2023/03/14 10:44:37;;;;;;;3.30;1.87;;;23.30;64.00;;;;;;6252803;28;20240;-61
2023/03/14 10:47:50;;;;;;;6.90;3.33;;;26.20;52.10;;;;;;6252869;28;20307;-63
2023/03/14 10:50:58;;;;;;;4.70;2.40;;;27.00;48.10;;;;;;6253028;28;20864;-63
2023/03/14 10:54:04;;;;;;;4.70;2.60;;;26.80;46.10;;;;;;6253084;28;20227;-63
2023/03/14 10:57:08;;;;;;;6.50;3.23;;;26.00;45.30;;;;;;6252451;28;20242;-63
2023/03/14 11:00:17;;;;;;;3.63;2.50;;;25.10;46.90;;;;;;6252151;28;20289;-63
2023/03/14 11:03:22;;;;;;;3.10;2.20;;;24.10;47.20;;;;;;6252573;28;20670;-63
2023/03/14 11:06:36;;;;;;;3.60;1.27;;;22.90;49.70;;;;;;6252277;28;20243;-62
2023/03/14 11:09:46;;;;;;;1.37;0.80;;;21.80;47.60;;;;;;6251948;28;20224;-62
2023/03/14 11:13:02;;;;;;;2.20;0.60;;;20.90;47.20;;;;;;6251368;28;20220;-60
2023/03/14 11:16:14;;;;;;;3.53;0.60;;;20.20;47.20;;;;;;6251958;28;20228;-60
2023/03/14 11:19:42;;;;;;;1.33;0.40;;;19.40;47.90;;;;;;6252522;28;20228;-59
2023/03/14 11:22:53;;;;;;;0.97;0.50;;;18.50;50.00;;;;;;6252186;28;20541;-60
2023/03/14 11:26:08;;;;;;;0.83;0.50;;;17.90;51.20;;;;;;6252129;28;20247;-60
2023/03/14 11:29:21;;;;;;;1.73;0.63;;;17.90;51.50;;;;;;6252003;28;20232;-60
2023/03/14 11:32:42;;;;;;;1.17;0.70;;;18.50;52.30;;;;;;6252349;28;20224;-61
2023/03/14 11:35:50;;;;;;;1.27;0.50;;;21.00;47.50;;;;;;6251661;28;20680;-61
2023/03/14 11:38:56;;;;;;;0.60;0.40;;;21.30;44.70;;;;;;6252152;28;20224;-60
2023/03/14 11:42:01;;;;;;;0.60;0.33;;;22.30;43.80;;;;;;6252449;28;20236;-61
2023/03/14 11:45:18;;;;;;;0.83;0.33;;;24.70;41.60;;;;;;6276503;28;20231;-62
2023/03/14 11:48:30;;;;;;;0.90;0.40;;;27.20;35.40;;;;;;6267445;28;20231;-63
2023/03/14 11:51:36;;;;;;;1.10;0.60;;;27.10;33.50;;;;;;6276472;28;20242;-63
2023/03/14 11:54:46;;;;;;;3.00;0.70;;;26.00;34.40;;;;;;6276064;28;20254;-62
2023/03/14 11:57:52;;;;;;;0.70;0.40;;;25.10;35.90;;;;;;6276017;28;20358;-63
2023/03/14 12:00:58;;;;;;;1.40;0.70;;;24.20;36.50;;;;;;6276037;28;20250;-62
2023/03/14 12:04:07;;;;;;;1.83;0.67;;;24.20;37.80;;;;;;6275933;28;20629;-64
2023/03/14 12:07:19;;;;;;;1.43;0.70;;;24.40;37.80;;;;;;6264009;28;20235;-62
2023/03/14 12:10:23;;;;;;;2.30;0.70;;;23.80;38.80;;;;;;6250995;28;20300;-63
2023/03/14 12:13:34;;;;;;;2.60;0.80;;;23.00;39.60;;;;;;6250699;28;20224;-62
2023/03/14 12:16:39;;;;;;;3.10;0.77;;;22.30;40.00;;;;;;6248286;28;20666;-61
2023/03/14 12:19:43;;;;;;;2.20;0.83;;;21.80;41.00;;;;;;6250217;28;20722;-61
2023/03/14 12:22:48;;;;;;;0.87;0.77;;;21.30;41.50;;;;;;6248495;28;20207;-62
2023/03/14 12:26:08;;;;;;;3.27;0.73;;;20.60;42.20;;;;;;6250695;28;20239;-61
2023/03/14 12:29:17;;;;;;;1.17;0.50;;;20.10;43.20;;;;;;6251077;28;20220;-63
2023/03/14 12:32:25;;;;;;;0.73;0.57;;;19.60;44.00;;;;;;6250781;28;20229;-64
2023/03/14 12:35:36;;;;;;;1.33;0.53;;;19.20;44.30;;;;;;6250467;28;20311;-64
2023/03/14 12:39:02;;;;;;;0.80;0.77;;;18.80;45.70;;;;;;6250861;28;20235;-63
2023/03/14 12:42:11;;;;;;;0.90;0.63;;;18.50;46.10;;;;;;6249738;28;20232;-65
2023/03/14 12:45:24;;;;;;;4.50;2.47;;;18.30;46.10;;;;;;6274896;28;20682;-63
2023/03/14 12:48:28;;;;;;;1.47;0.97;;;18.20;46.50;;;;;;6275047;28;20565;-64
2023/03/14 12:51:36;;;;;;;1.77;1.00;;;17.90;46.70;;;;;;6266084;28;20254;-64
2023/03/14 12:54:44;;;;;;;3.13;1.10;;;17.70;47.00;;;;;;6274909;28;20236;-65
2023/03/14 12:57:57;;;;;;;4.33;1.00;;;17.60;47.20;;;;;;6274809;28;20534;-62
2023/03/14 13:01:04;;;;;;;2.20;1.47;;;17.40;47.10;;;;;;6274522;28;20269;-65
2023/03/14 13:04:10;;;;;;;1.13;0.90;;;17.10;48.10;;;;;;6274808;28;20575;-63
2023/03/14 13:07:29;;;;;;;2.53;1.13;;;17.00;49.00;;;;;;6274257;28;20652;-62
2023/03/14 13:10:40;;;;;;;2.23;1.00;;;16.80;49.60;;;;;;6251201;28;20817;-62
2023/03/14 13:13:48;;;;;;;3.20;1.07;;;16.80;50.70;;;;;;6249424;28;20812;-62
2023/03/14 13:16:53;;;;;;;2.90;0.93;;;16.60;52.20;;;;;;6249799;28;20492;-62
2023/03/14 13:20:00;;;;;;;3.43;1.20;;;16.50;53.20;;;;;;6249513;28;20965;-62
2023/03/14 13:23:04;;;;;;;0.93;0.83;;;16.20;54.70;;;;;;6249553;28;20458;-63
2023/03/14 13:26:14;;;;;;;3.60;0.90;;;16.10;54.40;;;;;;6249197;28;20532;-62
2023/03/14 13:29:20;;;;;;;2.20;1.00;;;16.10;54.90;;;;;;6249192;28;20470;-62
2023/03/14 13:32:28;;;;;;;2.60;1.00;;;16.20;54.60;;;;;;6249408;28;20478;-62
2023/03/14 13:35:40;;;;;;;2.00;1.13;;;16.30;54.70;;;;;;6248678;28;20470;-62
2023/03/14 13:38:44;;;;;;;1.40;1.00;;;16.30;54.90;;;;;;6249227;28;20566;-63
2023/03/14 13:41:48;;;;;;;3.03;1.20;;;16.40;55.00;;;;;;6249458;28;20490;-61
2023/03/14 13:44:53;;;;;;;1.87;1.03;;;16.20;55.30;;;;;;6273410;28;20491;-63
2023/03/14 13:47:58;;;;;;;3.27;1.10;;;16.30;56.10;;;;;;6274155;28;20493;-61
2023/03/14 13:51:05;;;;;;;2.57;1.10;;;16.40;55.70;;;;;;6273879;28;20783;-61
2023/03/14 13:54:16;;;;;;;2.17;1.13;;;16.40;55.40;;;;;;6264241;28;20803;-61
2023/03/14 13:57:19;;;;;;;2.00;1.00;;;16.50;55.40;;;;;;6264897;28;20482;-63
2023/03/14 14:00:26;;;;;;;4.00;1.10;;;16.40;55.60;;;;;;6248918;28;20479;-64
2023/03/14 14:03:33;;;;;;;1.90;0.70;;;16.30;55.80;;;;;;6248892;28;20786;-64
2023/03/14 14:06:37;;;;;;;2.70;1.07;;;16.20;56.30;;;;;;6248803;28;20474;-61
2023/03/14 14:09:43;;;;;;;1.20;0.90;;;16.20;56.40;;;;;;6248406;28;20494;-61
2023/03/14 14:12:51;;;;;;;1.30;0.90;;;16.10;56.80;;;;;;6248617;28;20463;-61
2023/03/14 14:15:56;;;;;;;4.43;1.00;;;15.90;57.10;;;;;;6248422;28;20474;-64
2023/03/14 14:19:02;;;;;;;0.90;0.80;;;15.90;57.20;;;;;;6248450;28;20816;-64
2023/03/14 14:22:06;;;;;;;1.30;1.10;;;15.80;57.50;;;;;;6248589;28;20483;-63
2023/03/14 14:25:14;;;;;;;0.80;0.77;;;15.50;57.80;;;;;;6248608;28;20577;-64
2023/03/14 14:28:24;;;;;;;1.50;1.17;;;15.60;57.70;;;;;;6248773;28;20475;-63
2023/03/14 14:31:27;;;;;;;1.60;1.03;;;15.60;58.00;;;;;;6248746;28;20463;-63
2023/03/14 14:34:40;;;;;;;1.13;0.80;;;15.70;57.70;;;;;;6248071;28;20940;-60
2023/03/14 14:37:45;;;;;;;0.90;0.70;;;15.70;57.40;;;;;;6248980;28;20548;-62
2023/03/14 14:40:52;;;;;;;2.20;1.10;;;15.70;57.60;;;;;;6248743;28;20446;-61
2023/03/14 14:43:56;;;;;;;1.33;1.23;;;15.60;57.80;;;;;;6248447;28;20428;-63
2023/03/14 14:46:59;;;;;;;6.50;5.37;;;15.60;58.10;;;;;;6250969;28;20470;-63
2023/03/14 14:50:05;;;;;;;3.23;1.77;;;15.70;58.00;;;;;;6253027;28;20553;-62
2023/03/14 14:53:23;;;;;;;1.90;1.80;;;15.80;57.60;;;;;;6253007;28;20476;-65
2023/03/14 14:56:28;;;;;;;2.20;1.30;;;15.90;57.60;;;;;;6248528;28;20482;-63
2023/03/14 14:59:33;;;;;;;1.60;1.20;;;16.00;57.50;;;;;;6252814;28;20517;-64
2023/03/14 15:02:43;;;;;;;6.70;1.30;;;16.10;57.10;;;;;;6253917;28;20475;-62
2023/03/14 15:05:48;;;;;;;4.67;1.57;;;16.10;56.70;;;;;;6252988;28;20478;-61
2023/03/14 15:08:53;;;;;;;3.90;1.33;;;16.30;56.50;;;;;;6242693;28;20509;-60
2023/03/14 15:11:56;;;;;;;1.27;1.10;;;16.30;56.00;;;;;;6228440;28;20486;-61
2023/03/14 15:14:59;;;;;;;3.37;1.10;;;16.20;55.80;;;;;;6240239;28;20971;-60
2023/03/14 15:18:03;;;;;;;1.53;1.00;;;16.30;55.80;;;;;;6252286;28;20478;-60
2023/03/14 15:21:07;;;;;;;1.77;1.10;;;16.40;55.70;;;;;;6252622;28;20470;-61
2023/03/14 15:24:11;;;;;;;0.90;0.80;;;16.40;55.60;;;;;;6252074;28;20486;-61
2023/03/14 15:27:16;;;;;;;1.37;0.50;;;16.50;55.60;;;;;;6251903;28;20490;-61
2023/03/14 15:30:20;;;;;;;1.40;0.80;;;16.50;55.40;;;;;;6250300;28;20475;-61
2023/03/14 15:33:24;;;;;;;7.77;1.60;;;16.30;55.70;;;;;;6248272;28;20478;-61
2023/03/14 15:36:30;;;;;;;3.57;1.40;;;16.30;55.60;;;;;;6251456;28;20486;-61
2023/03/14 15:39:34;;;;;;;3.47;0.90;;;16.40;55.70;;;;;;6251492;28;20467;-61
2023/03/14 15:42:37;;;;;;;1.50;0.67;;;16.40;55.40;;;;;;6250762;28;20972;-61
2023/03/14 15:45:41;;;;;;;1.17;0.90;;;16.30;54.90;;;;;;6250100;28;21090;-61
2023/03/14 15:48:44;;;;;;;2.17;1.60;;;16.30;54.90;;;;;;6250923;28;20485;-61
2023/03/14 15:51:49;;;;;;;2.60;1.20;;;16.20;55.40;;;;;;6250366;28;20478;-61
2023/03/14 15:54:52;;;;;;;3.93;2.40;;;15.90;56.40;;;;;;6250070;28;20479;-61
2023/03/14 15:57:56;;;;;;;2.23;1.97;;;15.80;56.90;;;;;;6249929;28;20490;-61
2023/03/14 16:00:59;;;;;;;3.80;2.07;;;15.80;56.80;;;;;;6250695;28;20467;-61
2023/03/14 16:04:03;;;;;;;1.77;1.40;;;15.90;56.70;;;;;;6250110;28;20478;-63
2023/03/14 16:07:07;;;;;;;1.57;1.40;;;16.00;56.60;;;;;;6250220;28;21018;-61
2023/03/14 16:10:12;;;;;;;2.10;1.90;;;16.00;56.50;;;;;;6239871;28;20471;-61